createdAt,value
2023-05-11T00:02:15.964Z,3.38
2023-05-11T00:04:43.524Z,3.35
2023-05-11T00:07:11.059Z,2.78
2023-05-11T00:09:38.867Z,3.40
2023-05-11T00:12:06.332Z,3.45
2023-05-11T00:14:33.403Z,3.33
2023-05-11T00:17:00.566Z,3.42
2023-05-11T00:19:28.283Z,4.43
2023-05-11T00:21:55.499Z,3.25
2023-05-11T00:24:22.624Z,3.70
2023-05-11T00:26:49.673Z,4.13
2023-05-11T00:29:16.763Z,3.40
2023-05-11T00:31:48.292Z,4.03
2023-05-11T00:34:16.673Z,4.22
2023-05-11T00:36:44.566Z,3.25
2023-05-11T00:39:12.788Z,3.72
2023-05-11T00:41:40.032Z,3.20
2023-05-11T00:44:07.194Z,3.10
2023-05-11T00:46:34.372Z,3.40
2023-05-11T00:49:01.572Z,3.20
2023-05-11T00:51:28.747Z,3.58
2023-05-11T00:53:56.051Z,4.25
2023-05-11T00:56:23.192Z,3.17
2023-05-11T00:58:50.327Z,3.08
2023-05-11T01:01:18.922Z,3.50
2023-05-11T01:03:47.469Z,3.33
2023-05-11T01:06:25.873Z,4.07
2023-05-11T01:09:18.862Z,3.83
2023-05-11T01:11:49.703Z,3.30
2023-05-11T01:14:31.367Z,4.45
2023-05-11T01:17:09.983Z,3.03
2023-05-11T01:19:43.888Z,3.53
2023-05-11T01:22:31.278Z,4.25
2023-05-11T01:25:22.801Z,3.92
2023-05-11T01:28:07.997Z,3.60
2023-05-11T01:30:43.503Z,4.43
2023-05-11T01:33:14.780Z,3.40
2023-05-11T01:35:48.132Z,3.53
2023-05-11T01:38:19.196Z,3.15
2023-05-11T01:40:52.475Z,3.35
2023-05-11T01:43:23.804Z,3.92
2023-05-11T01:45:52.211Z,4.20
2023-05-11T01:48:26.073Z,3.60
2023-05-11T01:50:54.039Z,3.97
2023-05-11T01:53:22.908Z,3.42
2023-05-11T01:55:51.551Z,3.33
2023-05-11T01:58:19.269Z,3.97
2023-05-11T02:00:47.628Z,3.53
2023-05-11T02:03:16.470Z,3.42
2023-05-11T02:05:46.651Z,4.00
2023-05-11T02:08:15.136Z,3.28
2023-05-11T02:10:42.995Z,3.65
2023-05-11T02:13:10.873Z,3.75
2023-05-11T02:15:42.780Z,3.38
2023-05-11T02:18:13.257Z,3.85
2023-05-11T02:20:43.711Z,3.45
2023-05-11T02:23:11.622Z,3.28
2023-05-11T02:25:40.825Z,2.95
2023-05-11T02:28:08.439Z,3.40
2023-05-11T02:30:43.535Z,3.45
2023-05-11T02:33:14.784Z,3.80
2023-05-11T02:35:44.412Z,3.63
2023-05-11T02:38:12.671Z,3.63
2023-05-11T02:40:51.557Z,3.70
2023-05-11T02:43:24.739Z,3.38
2023-05-11T02:45:57.117Z,5.20
2023-05-11T02:48:28.565Z,3.47
2023-05-11T02:50:57.125Z,3.85
2023-05-11T02:53:27.676Z,3.20
2023-05-11T02:55:58.373Z,3.55
2023-05-11T02:58:25.810Z,3.53
2023-05-11T03:00:53.400Z,3.25
2023-05-11T03:03:20.687Z,3.60
2023-05-11T03:05:47.823Z,3.60
2023-05-11T03:08:14.721Z,3.75
2023-05-11T03:10:43.000Z,3.70
2023-05-11T03:13:10.167Z,3.20
2023-05-11T03:15:38.907Z,3.08
2023-05-11T03:18:07.873Z,3.20
2023-05-11T03:20:37.536Z,3.78
2023-05-11T03:23:06.389Z,3.40
2023-05-11T03:25:33.717Z,3.80
2023-05-11T03:28:01.709Z,4.15
2023-05-11T03:30:29.288Z,3.90
2023-05-11T03:32:56.520Z,3.50
2023-05-11T03:35:27.399Z,3.20
2023-05-11T03:37:56.541Z,3.78
2023-05-11T03:40:24.633Z,3.63
2023-05-11T03:42:55.062Z,3.85
2023-05-11T03:45:23.065Z,3.28
2023-05-11T03:47:51.487Z,3.70
2023-05-11T03:50:20.117Z,3.38
2023-05-11T03:52:48.207Z,3.47
2023-05-11T03:55:16.273Z,3.30
2023-05-11T03:57:43.571Z,3.33
2023-05-11T04:00:11.808Z,3.25
2023-05-11T04:02:38.926Z,3.58
2023-05-11T04:05:10.749Z,4.30
2023-05-11T04:07:39.170Z,3.50
2023-05-11T04:10:07.331Z,3.85
2023-05-11T04:12:34.514Z,3.40
2023-05-11T04:15:01.671Z,3.22
2023-05-11T04:17:28.617Z,4.03
2023-05-11T04:19:55.661Z,3.30
2023-05-11T04:22:23.441Z,3.40
2023-05-11T04:24:50.359Z,4.00
2023-05-11T04:27:18.447Z,3.58
2023-05-11T04:29:45.444Z,3.78
2023-05-11T04:32:12.597Z,3.90
2023-05-11T04:34:40.139Z,3.60
2023-05-11T04:37:07.655Z,3.88
2023-05-11T04:39:35.220Z,3.25
2023-05-11T04:42:02.222Z,3.58
2023-05-11T04:44:29.165Z,4.13
2023-05-11T04:46:57.313Z,3.55
2023-05-11T04:49:24.315Z,3.75
2023-05-11T04:51:51.353Z,4.28
2023-05-11T04:54:18.227Z,3.85
2023-05-11T04:56:45.384Z,3.58
2023-05-11T04:59:12.416Z,3.60
2023-05-11T05:01:39.372Z,4.03
2023-05-11T05:04:06.415Z,3.58
2023-05-11T05:06:33.899Z,3.63
2023-05-11T05:09:00.977Z,3.80
2023-05-11T05:11:28.073Z,3.38
2023-05-11T05:13:55.140Z,3.72
2023-05-11T05:16:22.180Z,3.95
2023-05-11T05:18:49.276Z,3.60
2023-05-11T05:21:16.369Z,3.45
2023-05-11T05:23:43.274Z,3.22
2023-05-11T05:26:10.257Z,3.45
2023-05-11T05:28:37.261Z,3.30
2023-05-11T05:31:04.249Z,3.38
2023-05-11T05:33:31.288Z,3.20
2023-05-11T05:35:58.240Z,3.42
2023-05-11T05:38:25.178Z,4.18
2023-05-11T05:40:52.964Z,3.25
2023-05-11T05:43:19.947Z,3.67
2023-05-11T05:45:46.882Z,4.00
2023-05-11T05:48:13.842Z,3.75
2023-05-11T05:50:40.749Z,3.28
2023-05-11T05:53:08.017Z,3.42
2023-05-11T05:55:35.245Z,3.38
2023-05-11T05:58:02.228Z,3.47
2023-05-11T06:00:29.279Z,3.28
2023-05-11T06:02:56.348Z,3.22
2023-05-11T06:05:23.375Z,4.10
2023-05-11T06:08:01.911Z,2.88
2023-05-11T06:10:36.495Z,3.10
2023-05-11T06:13:03.506Z,3.53
2023-05-11T06:15:30.415Z,3.75
2023-05-11T06:17:57.339Z,3.45
2023-05-11T06:20:24.424Z,3.83
2023-05-11T06:22:51.416Z,3.30
2023-05-11T06:25:18.315Z,3.40
2023-05-11T06:27:45.164Z,3.70
2023-05-11T06:30:12.447Z,3.95
2023-05-11T06:32:39.381Z,3.58
2023-05-11T06:35:06.933Z,3.83
2023-05-11T06:37:34.221Z,3.83
2023-05-11T06:40:01.206Z,3.97
2023-05-11T06:42:28.188Z,3.33
2023-05-11T06:44:55.181Z,2.97
2023-05-11T06:47:22.067Z,3.08
2023-05-11T06:49:49.106Z,3.78
2023-05-11T06:52:16.044Z,3.28
2023-05-11T06:58:30.451Z,3.85
2023-05-11T07:00:57.787Z,3.33
2023-05-11T07:03:24.783Z,3.03
2023-05-11T07:05:51.777Z,2.90
2023-05-11T07:08:18.695Z,2.90
2023-05-11T07:10:45.802Z,3.08
2023-05-11T07:13:12.798Z,2.60
2023-05-11T07:15:39.720Z,3.05
2023-05-11T07:18:06.901Z,2.60
2023-05-11T07:20:36.613Z,2.85
2023-05-11T07:23:03.738Z,3.08
2023-05-11T07:25:30.749Z,2.92
2023-05-11T07:27:57.699Z,3.42
2023-05-11T07:30:25.625Z,2.75
2023-05-11T07:32:52.839Z,3.28
2023-05-11T07:35:20.349Z,2.47
2023-05-11T07:41:35.461Z,2.78
2023-05-11T07:44:02.572Z,2.63
2023-05-11T07:46:29.793Z,3.00
2023-05-11T07:52:44.388Z,2.55
2023-05-11T07:55:11.412Z,3.00
2023-05-11T07:57:38.334Z,2.30
2023-05-11T08:00:07.303Z,3.47
2023-05-11T08:02:35.059Z,2.75
2023-05-11T08:05:02.108Z,2.60
2023-05-11T08:07:29.112Z,2.35
2023-05-11T08:09:56.085Z,2.40
2023-05-11T08:12:23.000Z,2.40
2023-05-11T08:14:50.158Z,2.50
2023-05-11T08:17:17.112Z,2.78
2023-05-11T08:19:44.009Z,2.00
2023-05-11T08:22:10.987Z,2.30
2023-05-11T08:24:37.978Z,2.25
2023-05-11T08:27:05.148Z,2.90
2023-05-11T08:29:32.110Z,2.28
2023-05-11T08:31:59.068Z,2.42
2023-05-11T08:34:26.985Z,2.25
2023-05-11T08:36:55.312Z,2.00
2023-05-11T08:39:43.230Z,1.80
2023-05-11T08:42:10.673Z,2.10
2023-05-11T08:44:40.886Z,1.95
2023-05-11T08:47:22.084Z,2.13
2023-05-11T08:49:53.077Z,2.20
2023-05-11T08:52:20.230Z,2.25
2023-05-11T08:54:48.110Z,2.00
2023-05-11T08:57:15.437Z,2.25
2023-05-11T08:59:45.660Z,3.22
2023-05-11T09:02:18.133Z,3.00
2023-05-11T09:04:48.294Z,3.20
2023-05-11T09:07:19.852Z,1.77
2023-05-11T09:09:47.949Z,2.05
2023-05-11T09:12:16.608Z,1.77
2023-05-11T09:14:44.014Z,2.35
2023-05-11T09:17:11.221Z,2.00
2023-05-11T09:20:05.502Z,1.98
2023-05-11T09:22:46.778Z,2.05
2023-05-11T09:25:15.686Z,2.40
2023-05-11T09:27:44.133Z,2.20
2023-05-11T09:30:12.806Z,1.98
2023-05-11T09:32:59.899Z,1.90
2023-05-11T09:35:32.196Z,1.95
2023-05-11T09:38:11.696Z,2.38
2023-05-11T09:40:43.350Z,2.22
2023-05-11T09:43:36.763Z,2.35
2023-05-11T09:46:07.736Z,2.20
2023-05-11T09:48:35.461Z,1.98
2023-05-11T09:51:04.070Z,2.17
2023-05-11T09:53:58.024Z,2.00
2023-05-11T09:56:45.051Z,1.93
2023-05-11T09:59:13.186Z,1.92
2023-05-11T10:01:40.757Z,1.90
2023-05-11T10:04:22.090Z,2.13
2023-05-11T10:06:55.329Z,2.30
2023-05-11T10:09:26.190Z,2.47
2023-05-11T10:11:55.565Z,2.20
2023-05-11T10:14:24.228Z,2.13
2023-05-11T10:16:52.516Z,2.00
2023-05-11T10:19:19.868Z,2.00
2023-05-11T10:21:47.731Z,2.03
2023-05-11T10:24:17.114Z,2.17
2023-05-11T10:26:45.799Z,2.10
2023-05-11T10:29:13.533Z,1.98
2023-05-11T10:31:41.101Z,2.00
2023-05-11T10:34:10.707Z,2.20
2023-05-11T10:36:37.655Z,1.77
2023-05-11T10:39:04.729Z,1.60
2023-05-11T10:41:51.826Z,1.75
2023-05-11T10:44:41.116Z,1.70
2023-05-11T10:47:11.134Z,1.90
2023-05-11T10:50:16.501Z,2.15
2023-05-11T10:53:07.752Z,1.90
2023-05-11T10:55:58.931Z,1.83
2023-05-11T10:58:59.107Z,3.13
2023-05-11T11:01:44.562Z,1.90
2023-05-11T11:04:15.049Z,1.92
2023-05-11T11:06:44.197Z,1.77
2023-05-11T11:09:16.485Z,2.25
2023-05-11T11:11:47.270Z,1.70
2023-05-11T11:14:15.893Z,2.00
2023-05-11T11:17:15.510Z,1.80
2023-05-11T11:19:43.532Z,1.80
2023-05-11T11:22:35.043Z,2.10
2023-05-11T11:25:06.315Z,2.00
2023-05-11T11:27:44.918Z,1.60
2023-05-11T11:30:21.381Z,2.00
2023-05-11T11:32:56.730Z,2.70
2023-05-11T11:35:42.473Z,1.98
2023-05-11T11:38:15.232Z,2.20
2023-05-11T11:43:19.938Z,2.28
2023-05-11T11:45:53.017Z,2.28
2023-05-11T11:48:41.516Z,2.10
2023-05-11T11:51:10.724Z,1.70
2023-05-11T11:53:37.968Z,1.77
2023-05-11T11:56:07.627Z,1.95
2023-05-11T11:58:43.643Z,1.90
2023-05-11T12:01:16.775Z,1.80
2023-05-11T12:03:49.113Z,3.20
2023-05-11T12:06:21.220Z,1.92
2023-05-11T12:08:48.497Z,3.08
2023-05-11T12:11:17.804Z,1.83
2023-05-11T12:13:45.467Z,1.67
2023-05-11T12:16:16.317Z,1.88
2023-05-11T12:19:01.407Z,1.92
2023-05-11T12:21:31.878Z,1.80
2023-05-11T12:24:01.772Z,1.88
2023-05-11T12:26:30.705Z,2.05
2023-05-11T12:29:15.237Z,2.22
2023-05-11T12:31:44.215Z,1.83
2023-05-11T12:34:22.967Z,1.88
2023-05-11T12:36:52.252Z,2.42
2023-05-11T12:39:24.446Z,2.10
2023-05-11T12:41:53.558Z,1.90
2023-05-11T12:44:22.713Z,1.98
2023-05-11T12:50:30.948Z,1.88
2023-05-11T12:53:16.126Z,2.30
2023-05-11T12:55:43.778Z,2.10
2023-05-11T12:58:18.757Z,1.88
2023-05-11T13:00:54.588Z,1.92
2023-05-11T13:03:26.702Z,2.08
2023-05-11T13:06:08.269Z,2.40
2023-05-11T13:08:40.233Z,1.98
2023-05-11T13:11:28.773Z,1.65
2023-05-11T13:13:57.187Z,2.22
2023-05-11T13:16:28.822Z,2.13
2023-05-11T13:19:04.648Z,1.95
2023-05-11T13:21:33.566Z,2.10
2023-05-11T13:24:02.164Z,2.70
2023-05-11T13:26:32.774Z,1.88
2023-05-11T13:32:40.498Z,2.28
2023-05-11T13:35:07.871Z,1.90
2023-05-11T13:37:34.898Z,2.63
2023-05-11T13:40:02.267Z,1.90
2023-05-11T13:42:29.575Z,1.60
2023-05-11T13:44:56.551Z,1.80
2023-05-11T13:47:24.212Z,2.40
2023-05-11T13:49:51.351Z,2.03
2023-05-11T13:52:18.366Z,1.85
2023-05-11T13:54:45.324Z,1.73
2023-05-11T13:57:13.274Z,2.25
2023-05-11T13:59:40.534Z,2.10
2023-05-11T14:02:08.060Z,1.83
2023-05-11T14:04:35.350Z,1.90
2023-05-11T14:07:02.255Z,1.90
2023-05-11T14:09:30.862Z,1.98
2023-05-11T14:11:57.853Z,1.52
2023-05-11T14:14:24.786Z,1.80
2023-05-11T14:16:51.734Z,1.70
2023-05-11T14:19:18.895Z,1.85
2023-05-11T14:21:45.863Z,1.77
2023-05-11T14:24:13.047Z,1.95
2023-05-11T14:26:41.240Z,1.80
2023-05-11T14:29:08.341Z,1.80
2023-05-11T14:31:36.105Z,1.60
2023-05-11T14:34:04.309Z,1.73
2023-05-11T14:36:32.127Z,1.50
2023-05-11T14:38:59.108Z,1.60
2023-05-11T14:41:26.074Z,1.92
2023-05-11T14:43:52.946Z,1.50
2023-05-11T14:46:20.440Z,1.70
2023-05-11T14:48:47.449Z,1.80
2023-05-11T14:51:14.752Z,1.50
2023-05-11T14:53:41.659Z,1.67
2023-05-11T14:56:08.751Z,1.80
2023-05-11T14:58:36.120Z,1.50
2023-05-11T15:01:04.017Z,2.05
2023-05-11T15:03:31.308Z,1.98
2023-05-11T15:05:58.690Z,1.95
2023-05-11T15:08:30.058Z,1.80
2023-05-11T15:10:58.359Z,2.10
2023-05-11T15:13:25.502Z,2.33
2023-05-11T15:15:52.641Z,2.35
2023-05-11T15:18:19.860Z,1.67
2023-05-11T15:20:46.907Z,1.92
2023-05-11T15:23:17.203Z,2.20
2023-05-11T15:25:45.365Z,1.92
2023-05-11T15:28:12.575Z,1.95
2023-05-11T15:30:41.773Z,2.10
2023-05-11T15:33:10.104Z,2.30
2023-05-11T15:35:37.928Z,1.58
2023-05-11T15:38:05.628Z,2.03
2023-05-11T15:40:32.746Z,1.80
2023-05-11T15:43:00.295Z,2.00
2023-05-11T15:45:27.309Z,2.05
2023-05-11T15:47:54.492Z,2.17
2023-05-11T15:50:22.384Z,2.40
2023-05-11T15:52:49.519Z,2.10
2023-05-11T15:55:16.473Z,2.70
2023-05-11T15:57:43.589Z,2.95
2023-05-11T16:00:11.544Z,2.65
2023-05-11T16:02:38.797Z,2.45
2023-05-11T16:05:07.191Z,2.38
2023-05-11T16:07:34.642Z,2.30
2023-05-11T16:10:01.981Z,2.22
2023-05-11T16:12:29.047Z,2.55
2023-05-11T16:14:56.602Z,2.33
2023-05-11T16:17:23.948Z,2.03
2023-05-11T16:19:50.960Z,2.30
2023-05-11T16:22:17.857Z,2.58
2023-05-11T16:24:44.770Z,2.80
2023-05-11T16:27:11.788Z,2.63
2023-05-11T16:29:38.900Z,2.58
2023-05-11T16:32:06.152Z,3.00
2023-05-11T16:34:35.230Z,2.88
2023-05-11T16:37:02.150Z,3.08
2023-05-11T16:39:31.244Z,2.45
2023-05-11T16:41:58.240Z,2.63
2023-05-11T16:44:25.239Z,2.72
2023-05-11T16:46:52.656Z,2.45
2023-05-11T16:49:20.219Z,3.50
2023-05-11T16:51:47.283Z,2.80
2023-05-11T16:54:14.442Z,2.95
2023-05-11T16:56:41.694Z,2.85
2023-05-11T16:59:10.304Z,2.90
2023-05-11T17:01:37.926Z,3.40
2023-05-11T17:04:05.254Z,3.85
2023-05-11T17:06:33.038Z,2.55
2023-05-11T17:09:00.119Z,3.05
2023-05-11T17:11:27.127Z,2.75
2023-05-11T17:13:54.062Z,3.30
2023-05-11T17:16:21.270Z,2.83
2023-05-11T17:18:48.375Z,3.05
2023-05-11T17:21:16.017Z,2.40
2023-05-11T17:23:43.776Z,2.47
2023-05-11T17:26:12.412Z,4.43
2023-05-11T17:28:40.346Z,2.60
2023-05-11T17:31:15.603Z,2.83
2023-05-11T17:33:42.865Z,2.70
2023-05-11T17:36:10.062Z,2.40
2023-05-11T17:38:37.064Z,2.47
2023-05-11T17:41:07.725Z,2.47
2023-05-11T17:43:36.047Z,2.63
2023-05-11T17:46:04.194Z,2.28
2023-05-11T17:48:32.626Z,3.30
2023-05-11T17:54:47.565Z,3.00
2023-05-11T18:00:55.493Z,2.70
2023-05-11T18:03:22.667Z,2.33
2023-05-11T18:05:49.705Z,3.10
2023-05-11T18:08:16.844Z,2.97
2023-05-11T18:10:44.282Z,2.60
2023-05-11T18:13:11.324Z,2.95
2023-05-11T18:15:38.314Z,2.58
2023-05-11T18:18:05.434Z,2.60
2023-05-11T18:20:32.338Z,3.05
2023-05-11T18:22:59.496Z,3.20
2023-05-11T18:25:28.030Z,2.75
2023-05-11T18:27:55.188Z,2.67
2023-05-11T18:30:22.331Z,3.13
2023-05-11T18:32:49.393Z,3.00
2023-05-11T18:35:17.029Z,2.97
2023-05-11T18:37:43.939Z,3.83
2023-05-11T18:40:11.303Z,3.20
2023-05-11T18:42:38.219Z,2.75
2023-05-11T18:45:05.835Z,2.88
2023-05-11T18:47:36.019Z,3.08
2023-05-11T18:50:07.300Z,3.10
2023-05-11T18:56:22.392Z,3.25
2023-05-11T18:58:50.452Z,3.13
2023-05-11T19:01:18.123Z,3.15
2023-05-11T19:03:45.300Z,3.65
2023-05-11T19:06:12.300Z,3.50
2023-05-11T19:08:39.256Z,3.30
2023-05-11T19:11:07.882Z,3.50
2023-05-11T19:13:35.139Z,3.20
2023-05-11T19:16:04.542Z,3.20
2023-05-11T19:18:35.445Z,3.15
2023-05-11T19:21:05.243Z,3.25
2023-05-11T19:23:33.083Z,3.30
2023-05-11T19:26:00.537Z,3.58
2023-05-11T19:28:27.569Z,3.55
2023-05-11T19:34:41.589Z,3.25
2023-05-11T19:37:09.203Z,3.15
2023-05-11T19:39:36.179Z,3.47
2023-05-11T19:42:03.121Z,3.90
2023-05-11T19:44:33.137Z,3.33
2023-05-11T19:47:00.148Z,4.20
2023-05-11T19:49:28.076Z,3.20
2023-05-11T19:51:55.205Z,4.25
2023-05-11T19:54:22.353Z,4.00
2023-05-11T19:56:49.294Z,3.63
2023-05-11T19:59:16.271Z,3.10
2023-05-11T20:01:43.292Z,4.10
2023-05-11T20:04:12.770Z,3.28
2023-05-11T20:06:39.926Z,4.22
2023-05-11T20:09:07.394Z,3.15
2023-05-11T20:11:34.341Z,3.65
2023-05-11T20:14:01.322Z,3.85
2023-05-11T20:16:30.401Z,3.03
2023-05-11T20:18:59.422Z,3.65
2023-05-11T20:25:14.093Z,4.10
2023-05-11T20:27:45.138Z,4.07
2023-05-11T20:30:12.620Z,4.20
2023-05-11T20:32:39.540Z,3.83
2023-05-11T20:38:54.182Z,4.78
2023-05-11T20:45:07.326Z,4.35
2023-05-11T20:47:34.844Z,4.30
2023-05-11T20:50:02.108Z,4.43
2023-05-11T20:52:29.058Z,4.57
2023-05-11T20:54:56.177Z,4.82
2023-05-11T20:57:23.197Z,4.85
2023-05-11T21:02:20.175Z,4.68
2023-05-11T21:04:47.255Z,5.70
2023-05-11T21:07:14.255Z,5.07
2023-05-11T21:09:41.508Z,4.47
2023-05-11T21:12:08.528Z,4.40
2023-05-11T21:14:35.365Z,5.38
2023-05-11T21:17:02.324Z,5.05
2023-05-11T21:19:29.255Z,4.57
2023-05-11T21:21:56.226Z,5.00
2023-05-11T21:24:23.236Z,4.70
2023-05-11T21:26:50.191Z,4.65
2023-05-11T21:29:17.820Z,5.15
2023-05-11T21:31:44.847Z,4.63
2023-05-11T21:34:12.032Z,5.03
2023-05-11T21:36:41.038Z,4.80
2023-05-11T21:39:08.234Z,5.78
2023-05-11T21:41:35.366Z,5.13
2023-05-11T21:44:02.275Z,5.30
2023-05-11T21:46:29.144Z,4.60
2023-05-11T21:48:56.056Z,4.75
2023-05-11T21:51:23.062Z,5.07
2023-05-11T21:53:50.342Z,5.15
2023-05-11T21:56:17.217Z,5.05
2023-05-11T21:58:44.234Z,5.05
2023-05-11T22:01:11.232Z,5.32
2023-05-11T22:03:38.311Z,5.07
2023-05-11T22:06:05.421Z,5.25
2023-05-11T22:08:32.376Z,5.40
2023-05-11T22:10:59.305Z,5.05
2023-05-11T22:13:26.253Z,4.93
2023-05-11T22:15:53.186Z,5.80
2023-05-11T22:18:20.205Z,5.28
2023-05-11T22:20:47.250Z,5.15
2023-05-11T22:23:15.601Z,5.40
2023-05-11T22:25:42.886Z,5.05
2023-05-11T22:28:10.163Z,5.30
2023-05-11T22:30:37.692Z,4.85
2023-05-11T22:33:04.682Z,5.97
2023-05-11T22:35:31.698Z,5.43
2023-05-11T22:37:58.754Z,5.72
2023-05-11T22:40:25.969Z,5.47
2023-05-11T22:42:52.880Z,6.30
2023-05-11T22:45:19.756Z,5.82
2023-05-11T22:47:46.914Z,5.43
2023-05-11T22:50:13.923Z,5.85
2023-05-11T22:52:40.878Z,5.88
2023-05-11T22:55:08.352Z,5.00
2023-05-11T22:57:35.245Z,5.97
2023-05-11T23:00:02.210Z,5.78
2023-05-11T23:02:30.192Z,5.70
2023-05-11T23:04:57.747Z,5.32
2023-05-11T23:07:24.701Z,5.80
2023-05-11T23:09:53.000Z,6.18
2023-05-11T23:12:20.034Z,5.50
2023-05-11T23:14:47.310Z,5.50
2023-05-11T23:17:14.366Z,5.63
2023-05-11T23:19:41.701Z,5.68
2023-05-11T23:22:08.882Z,6.05
2023-05-11T23:24:36.273Z,6.00
2023-05-11T23:27:03.572Z,6.38
2023-05-11T23:29:30.612Z,6.10
2023-05-11T23:31:57.509Z,6.07
2023-05-11T23:34:24.470Z,5.82
2023-05-11T23:36:51.595Z,5.72
2023-05-11T23:39:18.726Z,5.75
2023-05-11T23:41:45.715Z,5.50
2023-05-11T23:44:12.629Z,5.60
2023-05-11T23:46:39.548Z,5.72
2023-05-11T23:49:06.564Z,5.78
2023-05-11T23:51:33.617Z,5.95
2023-05-11T23:54:00.516Z,6.43
2023-05-11T23:56:27.614Z,6.07
2023-05-11T23:58:54.607Z,5.38
